createdAt,value
2019-03-05T00:00:40.129Z,2.43
2019-03-05T00:05:45.436Z,2.60
2019-03-05T00:10:50.591Z,2.20
2019-03-05T00:15:56.323Z,2.60
2019-03-05T00:21:02.563Z,2.50
2019-03-05T00:26:08.160Z,2.30
2019-03-05T00:31:27.504Z,2.10
2019-03-05T00:36:36.654Z,2.50
2019-03-05T00:42:20.006Z,2.50
2019-03-05T00:48:04.450Z,2.83
2019-03-05T00:53:44.542Z,2.80
2019-03-05T00:59:30.868Z,2.60
2019-03-05T01:05:17.100Z,2.73
2019-03-05T01:10:23.273Z,2.77
2019-03-05T01:15:29.935Z,2.70
2019-03-05T01:20:35.087Z,2.60
2019-03-05T01:25:40.546Z,2.70
2019-03-05T01:31:07.792Z,2.60
2019-03-05T01:36:17.510Z,2.60
2019-03-05T01:41:22.661Z,1.97
2019-03-05T01:46:27.888Z,2.30
2019-03-05T01:51:33.445Z,1.83
2019-03-05T01:56:38.621Z,2.30
2019-03-05T02:01:43.862Z,3.10
2019-03-05T02:06:49.721Z,3.17
2019-03-05T02:11:54.873Z,3.20
2019-03-05T02:17:00.030Z,3.40
2019-03-05T02:22:06.441Z,2.83
2019-03-05T02:27:46.616Z,2.53
2019-03-05T02:33:02.518Z,2.57
2019-03-05T02:38:42.389Z,2.50
2019-03-05T02:44:03.399Z,2.47
2019-03-05T02:49:52.559Z,2.50
2019-03-05T02:55:37.099Z,2.20
2019-03-05T03:01:08.328Z,2.27
2019-03-05T03:06:19.793Z,2.20
2019-03-05T03:11:26.129Z,2.00
2019-03-05T03:16:31.299Z,1.90
2019-03-05T03:21:36.459Z,1.50
2019-03-05T03:26:41.622Z,1.40
2019-03-05T03:31:47.178Z,1.17
2019-03-05T03:36:54.007Z,1.33
2019-03-05T03:42:00.112Z,1.53
2019-03-05T03:47:05.630Z,1.40
2019-03-05T03:52:10.786Z,1.67
2019-03-05T03:57:15.953Z,1.40
2019-03-05T04:02:21.120Z,1.17
2019-03-05T04:07:26.726Z,1.50
2019-03-05T04:12:32.557Z,1.30
2019-03-05T04:17:37.615Z,1.70
2019-03-05T04:22:42.743Z,1.20
2019-03-05T04:27:48.051Z,1.20
2019-03-05T04:32:53.478Z,1.80
2019-03-05T04:37:58.605Z,1.60
2019-03-05T04:43:03.813Z,1.47
2019-03-05T04:48:09.014Z,1.50
2019-03-05T04:53:14.496Z,1.43
2019-03-05T04:58:20.304Z,1.43
2019-03-05T05:03:25.433Z,1.70
2019-03-05T05:08:30.571Z,1.73
2019-03-05T05:13:35.731Z,1.50
2019-03-05T05:18:41.196Z,1.50
2019-03-05T05:23:46.788Z,1.70
2019-03-05T05:28:52.162Z,1.30
2019-03-05T05:33:57.218Z,1.70
2019-03-05T05:39:02.755Z,1.40
2019-03-05T05:44:09.424Z,1.37
2019-03-05T05:49:14.472Z,1.50
2019-03-05T05:54:19.902Z,1.60
2019-03-05T05:59:24.986Z,1.60
2019-03-05T06:04:30.227Z,1.50
2019-03-05T06:09:35.626Z,1.60
2019-03-05T06:14:40.691Z,1.60
2019-03-05T06:19:46.561Z,1.20
2019-03-05T06:24:51.547Z,1.10
2019-03-05T06:29:56.683Z,1.10
2019-03-05T06:35:01.662Z,1.23
2019-03-05T06:40:09.520Z,1.10
2019-03-05T06:45:16.560Z,1.00
2019-03-05T06:50:22.794Z,1.50
2019-03-05T06:55:28.493Z,1.13
2019-03-05T07:00:37.913Z,1.30
2019-03-05T07:06:18.842Z,1.50
2019-03-05T07:12:02.229Z,1.00
2019-03-05T07:17:36.057Z,1.30
2019-03-05T07:23:22.175Z,1.20
2019-03-05T07:28:27.549Z,1.20
2019-03-05T07:33:32.688Z,1.97
2019-03-05T07:38:37.770Z,1.47
2019-03-05T07:43:43.191Z,1.30
2019-03-05T07:48:48.254Z,1.63
2019-03-05T07:53:53.646Z,1.57
2019-03-05T07:58:58.728Z,1.50
2019-03-05T08:04:04.442Z,1.73
2019-03-05T08:09:34.560Z,1.40
2019-03-05T08:14:54.779Z,1.57
2019-03-05T08:20:00.512Z,1.63
2019-03-05T08:25:08.661Z,1.40
2019-03-05T08:30:15.173Z,1.40
2019-03-05T08:35:20.701Z,1.37
2019-03-05T08:40:25.934Z,1.30
2019-03-05T08:45:31.230Z,1.40
2019-03-05T08:50:36.504Z,1.40
2019-03-05T08:55:41.592Z,1.30
2019-03-05T09:00:48.114Z,1.50
2019-03-05T09:05:53.448Z,1.60
2019-03-05T09:10:59.164Z,1.40
2019-03-05T09:16:06.347Z,1.43
2019-03-05T09:21:12.480Z,1.30
2019-03-05T09:26:18.661Z,1.17
2019-03-05T09:31:23.814Z,1.50
2019-03-05T09:36:30.143Z,1.20
2019-03-05T09:41:35.188Z,1.20
2019-03-05T09:46:40.332Z,1.00
2019-03-05T09:51:45.884Z,1.10
2019-03-05T09:56:51.052Z,1.30
2019-03-05T10:01:56.880Z,1.30
2019-03-05T10:07:03.530Z,1.42
2019-03-05T10:12:08.931Z,1.30
2019-03-05T10:17:14.320Z,1.20
2019-03-05T10:22:19.851Z,1.40
2019-03-05T10:27:24.985Z,1.20
2019-03-05T10:32:30.496Z,1.30
2019-03-05T10:37:35.912Z,1.30
2019-03-05T10:42:41.354Z,1.50
2019-03-05T10:47:47.605Z,1.40
2019-03-05T10:52:52.757Z,1.60
2019-03-05T10:57:58.470Z,1.20
2019-03-05T11:03:04.318Z,1.50
2019-03-05T11:08:13.015Z,1.30
2019-03-05T11:13:18.142Z,1.40
2019-03-05T11:18:29.271Z,1.20
2019-03-05T11:23:30.109Z,1.47
2019-03-05T11:28:35.180Z,1.13
2019-03-05T11:33:40.607Z,1.10
2019-03-05T11:38:46.138Z,1.10
2019-03-05T11:43:52.519Z,1.00
2019-03-05T11:48:57.972Z,1.13
2019-03-05T11:54:03.024Z,1.30
2019-03-05T11:59:08.177Z,1.50
2019-03-05T12:04:13.661Z,1.50
2019-03-05T12:09:19.141Z,1.43
2019-03-05T12:14:24.634Z,1.47
2019-03-05T12:19:29.773Z,1.10
2019-03-05T12:24:34.824Z,1.10
2019-03-05T12:29:40.212Z,1.23
2019-03-05T12:34:45.593Z,1.20
2019-03-05T12:39:50.716Z,1.17
2019-03-05T12:44:57.181Z,1.20
2019-03-05T12:50:03.398Z,0.93
2019-03-05T12:55:09.232Z,1.20
2019-03-05T13:00:18.129Z,1.32
2019-03-05T13:05:23.371Z,1.20
2019-03-05T13:10:34.868Z,1.13
2019-03-05T13:15:35.538Z,1.30
2019-03-05T13:20:40.947Z,1.17
2019-03-05T13:25:46.080Z,1.20
2019-03-05T13:30:51.247Z,1.13
2019-03-05T13:35:56.344Z,1.20
2019-03-05T13:41:01.479Z,1.13
2019-03-05T13:46:08.426Z,1.30
2019-03-05T13:51:50.707Z,1.10
2019-03-05T13:57:51.413Z,1.00
2019-03-05T14:03:07.967Z,0.95
2019-03-05T14:08:33.815Z,1.00
2019-03-05T14:13:38.874Z,1.10
2019-03-05T14:18:44.030Z,1.10
2019-03-05T14:23:50.166Z,1.00
2019-03-05T14:28:55.306Z,1.10
2019-03-05T14:34:00.420Z,1.00
2019-03-05T14:39:25.819Z,1.00
2019-03-05T14:44:39.334Z,1.00
2019-03-05T14:49:38.611Z,1.07
2019-03-05T14:54:44.588Z,0.90
2019-03-05T14:59:50.574Z,1.37
2019-03-05T15:04:56.040Z,1.13
2019-03-05T15:10:06.032Z,1.20
2019-03-05T15:15:15.032Z,1.55
2019-03-05T15:20:20.559Z,1.33
2019-03-05T15:25:25.723Z,1.20
2019-03-05T15:30:31.221Z,1.67
2019-03-05T15:35:36.213Z,1.60
2019-03-05T15:40:41.828Z,1.43
2019-03-05T15:45:47.075Z,1.63
2019-03-05T15:50:52.125Z,1.53
2019-03-05T15:55:57.632Z,1.87
2019-03-05T16:01:02.841Z,1.80
2019-03-05T16:06:08.151Z,1.77
2019-03-05T16:11:13.349Z,1.80
2019-03-05T16:16:19.403Z,2.00
2019-03-05T16:21:24.685Z,2.00
2019-03-05T16:26:29.735Z,2.00
2019-03-05T16:31:56.878Z,2.27
2019-03-05T16:37:39.186Z,2.10
2019-03-05T16:42:49.024Z,2.30
2019-03-05T16:48:02.272Z,2.13
2019-03-05T16:53:21.453Z,1.90
2019-03-05T16:58:54.044Z,1.87
2019-03-05T17:04:20.600Z,1.70
2019-03-05T17:09:37.746Z,2.30
2019-03-05T17:14:43.364Z,2.10
2019-03-05T17:19:49.699Z,1.90
2019-03-05T17:24:56.308Z,2.43
2019-03-05T17:30:02.145Z,2.03
2019-03-05T17:35:08.817Z,1.60
2019-03-05T17:40:16.258Z,1.53
2019-03-05T17:45:22.517Z,1.80
2019-03-05T17:50:28.242Z,1.67
2019-03-05T17:55:33.405Z,1.60
2019-03-05T18:00:40.657Z,1.53
2019-03-05T18:05:46.538Z,1.60
2019-03-05T18:10:51.597Z,1.70
2019-03-05T18:15:58.245Z,1.60
2019-03-05T18:21:03.692Z,1.60
2019-03-05T18:26:09.959Z,1.80
2019-03-05T18:31:15.647Z,1.67
2019-03-05T18:36:21.246Z,1.93
2019-03-05T18:41:28.016Z,1.97
2019-03-05T18:46:33.081Z,1.40
2019-03-05T18:51:41.356Z,1.50
2019-03-05T18:56:47.663Z,1.70
2019-03-05T19:01:52.718Z,1.63
2019-03-05T19:06:59.263Z,1.60
2019-03-05T19:12:04.594Z,1.80
2019-03-05T19:17:09.729Z,1.90
2019-03-05T19:22:15.023Z,1.70
2019-03-05T19:27:26.083Z,1.97
2019-03-05T19:32:27.623Z,1.90
2019-03-05T19:37:33.049Z,1.63
2019-03-05T19:42:38.442Z,1.60
2019-03-05T19:47:44.020Z,1.70
2019-03-05T19:52:49.517Z,1.70
2019-03-05T19:58:08.386Z,1.90
2019-03-05T20:03:13.906Z,1.90
2019-03-05T20:08:19.110Z,2.27
2019-03-05T20:13:24.224Z,1.60
2019-03-05T20:18:29.278Z,1.93
2019-03-05T20:23:35.050Z,2.07
2019-03-05T20:28:40.689Z,2.20
2019-03-05T20:33:45.747Z,1.90
2019-03-05T20:38:51.026Z,1.90
2019-03-05T20:43:56.153Z,2.20
2019-03-05T20:49:02.097Z,2.30
2019-03-05T20:54:07.541Z,2.27
2019-03-05T20:59:13.523Z,2.43
2019-03-05T21:04:19.429Z,2.37
2019-03-05T21:09:25.452Z,2.23
2019-03-05T21:14:30.500Z,2.20
2019-03-05T21:19:35.560Z,2.67
2019-03-05T21:24:41.023Z,2.47
2019-03-05T21:29:46.089Z,2.77
2019-03-05T21:34:51.508Z,2.67
2019-03-05T21:39:56.953Z,2.77
2019-03-05T21:45:04.002Z,2.90
2019-03-05T21:50:11.824Z,2.77
2019-03-05T21:55:17.311Z,2.60
2019-03-05T22:00:24.689Z,2.57
2019-03-05T22:05:30.371Z,2.83
2019-03-05T22:10:35.503Z,3.30
2019-03-05T22:15:41.594Z,3.40
2019-03-05T22:20:46.721Z,3.40
2019-03-05T22:25:51.789Z,3.13
2019-03-05T22:30:57.128Z,3.20
2019-03-05T22:36:02.193Z,3.43
2019-03-05T22:41:07.390Z,3.20
2019-03-05T22:46:12.928Z,3.50
2019-03-05T22:51:18.384Z,3.20
2019-03-05T22:56:24.895Z,3.43
2019-03-05T23:01:38.816Z,3.57
2019-03-05T23:06:44.317Z,3.47
2019-03-05T23:11:50.454Z,3.90
2019-03-05T23:16:55.584Z,4.20
2019-03-05T23:22:00.959Z,4.40
2019-03-05T23:27:07.896Z,3.97
2019-03-05T23:32:13.517Z,3.90
2019-03-05T23:37:19.752Z,4.10
2019-03-05T23:42:26.757Z,4.50
2019-03-05T23:47:31.885Z,4.60
2019-03-05T23:52:37.052Z,4.30
2019-03-05T23:57:42.685Z,4.40
